sensor_id;sensor_type;location;lat;lon;timestamp;P1;durP1;ratioP1;P2;durP2;ratioP2
68176;SDS011;56478;50.982;7.032;2022-11-20T00:00:53;12.85;;;8.65;;
68176;SDS011;56478;50.982;7.032;2022-11-20T00:03:19;12.32;;;8.02;;
68176;SDS011;56478;50.982;7.032;2022-11-20T00:05:44;13.38;;;8.40;;
68176;SDS011;56478;50.982;7.032;2022-11-20T00:08:10;13.18;;;8.60;;
68176;SDS011;56478;50.982;7.032;2022-11-20T00:10:36;13.25;;;8.18;;
68176;SDS011;56478;50.982;7.032;2022-11-20T00:13:02;12.80;;;7.80;;
68176;SDS011;56478;50.982;7.032;2022-11-20T00:15:28;13.45;;;8.57;;
68176;SDS011;56478;50.982;7.032;2022-11-20T00:17:53;12.52;;;8.15;;
68176;SDS011;56478;50.982;7.032;2022-11-20T00:20:19;11.75;;;8.45;;
68176;SDS011;56478;50.982;7.032;2022-11-20T00:22:44;13.77;;;8.93;;
68176;SDS011;56478;50.982;7.032;2022-11-20T00:25:10;12.98;;;8.27;;
68176;SDS011;56478;50.982;7.032;2022-11-20T00:27:36;13.48;;;8.82;;
68176;SDS011;56478;50.982;7.032;2022-11-20T00:30:02;12.25;;;8.60;;
68176;SDS011;56478;50.982;7.032;2022-11-20T00:32:28;12.73;;;8.30;;
68176;SDS011;56478;50.982;7.032;2022-11-20T00:34:54;12.43;;;8.63;;
68176;SDS011;56478;50.982;7.032;2022-11-20T00:37:19;13.82;;;8.07;;
68176;SDS011;56478;50.982;7.032;2022-11-20T00:39:45;12.25;;;8.50;;
68176;SDS011;56478;50.982;7.032;2022-11-20T00:42:10;12.30;;;8.77;;
68176;SDS011;56478;50.982;7.032;2022-11-20T00:44:36;12.07;;;8.10;;
68176;SDS011;56478;50.982;7.032;2022-11-20T00:47:01;12.80;;;8.40;;
68176;SDS011;56478;50.982;7.032;2022-11-20T00:49:27;12.98;;;8.98;;
68176;SDS011;56478;50.982;7.032;2022-11-20T00:51:52;10.80;;;7.75;;
68176;SDS011;56478;50.982;7.032;2022-11-20T00:54:18;11.73;;;8.18;;
68176;SDS011;56478;50.982;7.032;2022-11-20T00:56:43;12.18;;;8.40;;
68176;SDS011;56478;50.982;7.032;2022-11-20T00:59:09;15.02;;;9.00;;
68176;SDS011;56478;50.982;7.032;2022-11-20T01:01:35;12.55;;;8.43;;
68176;SDS011;56478;50.982;7.032;2022-11-20T01:04:02;11.60;;;7.95;;
68176;SDS011;56478;50.982;7.032;2022-11-20T01:06:29;12.52;;;8.65;;
68176;SDS011;56478;50.982;7.032;2022-11-20T01:08:57;12.85;;;8.73;;
68176;SDS011;56478;50.982;7.032;2022-11-20T01:11:34;12.95;;;8.30;;
68176;SDS011;56478;50.982;7.032;2022-11-20T01:14:02;13.75;;;8.70;;
68176;SDS011;56478;50.982;7.032;2022-11-20T01:16:34;12.60;;;8.87;;
68176;SDS011;56478;50.982;7.032;2022-11-20T01:19:02;12.75;;;8.43;;
68176;SDS011;56478;50.982;7.032;2022-11-20T01:21:31;12.60;;;8.20;;
68176;SDS011;56478;50.982;7.032;2022-11-20T01:23:58;11.05;;;7.68;;
68176;SDS011;56478;50.982;7.032;2022-11-20T01:26:25;12.10;;;8.43;;
68176;SDS011;56478;50.982;7.032;2022-11-20T01:28:53;13.40;;;8.40;;
68176;SDS011;56478;50.982;7.032;2022-11-20T01:31:21;11.85;;;8.43;;
68176;SDS011;56478;50.982;7.032;2022-11-20T01:33:48;13.87;;;8.20;;
68176;SDS011;56478;50.982;7.032;2022-11-20T01:36:16;12.48;;;8.23;;
68176;SDS011;56478;50.982;7.032;2022-11-20T01:38:43;9.82;;;7.75;;
68176;SDS011;56478;50.982;7.032;2022-11-20T01:41:09;12.90;;;8.23;;
68176;SDS011;56478;50.982;7.032;2022-11-20T01:43:56;10.98;;;7.70;;
68176;SDS011;56478;50.982;7.032;2022-11-20T01:46:22;12.85;;;8.27;;
68176;SDS011;56478;50.982;7.032;2022-11-20T01:51:58;12.27;;;8.10;;
68176;SDS011;56478;50.982;7.032;2022-11-20T01:54:12;11.90;;;7.88;;
68176;SDS011;56478;50.982;7.032;2022-11-20T01:56:43;11.45;;;8.40;;
68176;SDS011;56478;50.982;7.032;2022-11-20T01:59:10;11.85;;;7.72;;
68176;SDS011;56478;50.982;7.032;2022-11-20T02:01:40;10.55;;;7.90;;
68176;SDS011;56478;50.982;7.032;2022-11-20T02:04:06;12.15;;;8.27;;
68176;SDS011;56478;50.982;7.032;2022-11-20T02:06:44;11.88;;;7.60;;
68176;SDS011;56478;50.982;7.032;2022-11-20T02:09:14;11.35;;;8.50;;
68176;SDS011;56478;50.982;7.032;2022-11-20T02:11:40;11.15;;;7.78;;
68176;SDS011;56478;50.982;7.032;2022-11-20T02:14:06;10.30;;;7.50;;
68176;SDS011;56478;50.982;7.032;2022-11-20T02:16:39;12.38;;;8.00;;
68176;SDS011;56478;50.982;7.032;2022-11-20T02:19:12;12.35;;;7.38;;
68176;SDS011;56478;50.982;7.032;2022-11-20T02:24:27;10.13;;;7.68;;
68176;SDS011;56478;50.982;7.032;2022-11-20T02:26:57;10.75;;;7.50;;
68176;SDS011;56478;50.982;7.032;2022-11-20T02:29:28;12.48;;;7.78;;
68176;SDS011;56478;50.982;7.032;2022-11-20T02:31:55;10.80;;;7.65;;
68176;SDS011;56478;50.982;7.032;2022-11-20T02:34:22;13.07;;;7.97;;
68176;SDS011;56478;50.982;7.032;2022-11-20T02:36:48;11.52;;;7.80;;
68176;SDS011;56478;50.982;7.032;2022-11-20T02:39:16;11.00;;;7.70;;
68176;SDS011;56478;50.982;7.032;2022-11-20T02:41:44;12.93;;;8.45;;
68176;SDS011;56478;50.982;7.032;2022-11-20T02:44:09;11.43;;;8.00;;
68176;SDS011;56478;50.982;7.032;2022-11-20T02:46:35;11.68;;;7.78;;
68176;SDS011;56478;50.982;7.032;2022-11-20T02:49:01;9.55;;;7.40;;
68176;SDS011;56478;50.982;7.032;2022-11-20T02:51:27;11.30;;;7.63;;
68176;SDS011;56478;50.982;7.032;2022-11-20T02:53:53;10.23;;;7.00;;
68176;SDS011;56478;50.982;7.032;2022-11-20T02:56:19;13.02;;;7.93;;
68176;SDS011;56478;50.982;7.032;2022-11-20T02:58:45;10.75;;;7.50;;
68176;SDS011;56478;50.982;7.032;2022-11-20T03:01:10;9.60;;;7.43;;
68176;SDS011;56478;50.982;7.032;2022-11-20T03:03:36;10.68;;;7.90;;
68176;SDS011;56478;50.982;7.032;2022-11-20T03:06:01;10.85;;;6.05;;
68176;SDS011;56478;50.982;7.032;2022-11-20T03:08:26;9.68;;;7.05;;
68176;SDS011;56478;50.982;7.032;2022-11-20T03:10:53;10.68;;;7.28;;
68176;SDS011;56478;50.982;7.032;2022-11-20T03:13:21;10.88;;;7.50;;
68176;SDS011;56478;50.982;7.032;2022-11-20T03:15:47;10.35;;;7.50;;
68176;SDS011;56478;50.982;7.032;2022-11-20T03:18:12;9.85;;;7.05;;
68176;SDS011;56478;50.982;7.032;2022-11-20T03:20:39;11.13;;;7.65;;
68176;SDS011;56478;50.982;7.032;2022-11-20T03:23:04;11.88;;;8.43;;
68176;SDS011;56478;50.982;7.032;2022-11-20T03:25:32;10.95;;;7.43;;
68176;SDS011;56478;50.982;7.032;2022-11-20T03:27:58;11.20;;;7.97;;
68176;SDS011;56478;50.982;7.032;2022-11-20T03:30:23;11.52;;;7.22;;
68176;SDS011;56478;50.982;7.032;2022-11-20T03:32:49;13.10;;;8.00;;
68176;SDS011;56478;50.982;7.032;2022-11-20T03:35:18;11.48;;;8.07;;
68176;SDS011;56478;50.982;7.032;2022-11-20T03:37:44;13.50;;;7.72;;
68176;SDS011;56478;50.982;7.032;2022-11-20T03:40:11;12.00;;;8.20;;
68176;SDS011;56478;50.982;7.032;2022-11-20T03:42:36;13.13;;;8.20;;
68176;SDS011;56478;50.982;7.032;2022-11-20T03:45:12;10.95;;;7.40;;
68176;SDS011;56478;50.982;7.032;2022-11-20T03:47:38;11.38;;;7.65;;
68176;SDS011;56478;50.982;7.032;2022-11-20T03:50:04;13.77;;;8.73;;
68176;SDS011;56478;50.982;7.032;2022-11-20T03:52:30;11.93;;;7.57;;
68176;SDS011;56478;50.982;7.032;2022-11-20T03:54:55;10.88;;;7.95;;
68176;SDS011;56478;50.982;7.032;2022-11-20T03:57:21;11.23;;;7.68;;
68176;SDS011;56478;50.982;7.032;2022-11-20T03:59:46;12.55;;;8.48;;
68176;SDS011;56478;50.982;7.032;2022-11-20T04:02:11;12.45;;;8.50;;
68176;SDS011;56478;50.982;7.032;2022-11-20T04:04:37;15.20;;;8.85;;
68176;SDS011;56478;50.982;7.032;2022-11-20T04:07:02;14.20;;;9.23;;
68176;SDS011;56478;50.982;7.032;2022-11-20T04:09:28;12.73;;;8.43;;
68176;SDS011;56478;50.982;7.032;2022-11-20T04:11:53;10.68;;;8.23;;
68176;SDS011;56478;50.982;7.032;2022-11-20T04:14:19;14.18;;;8.93;;
68176;SDS011;56478;50.982;7.032;2022-11-20T04:16:44;11.98;;;8.55;;
68176;SDS011;56478;50.982;7.032;2022-11-20T04:19:11;13.18;;;8.75;;
68176;SDS011;56478;50.982;7.032;2022-11-20T04:21:38;14.85;;;8.48;;
68176;SDS011;56478;50.982;7.032;2022-11-20T04:24:03;12.70;;;8.07;;
68176;SDS011;56478;50.982;7.032;2022-11-20T04:26:29;12.85;;;8.73;;
68176;SDS011;56478;50.982;7.032;2022-11-20T04:28:56;12.27;;;8.45;;
68176;SDS011;56478;50.982;7.032;2022-11-20T04:31:26;12.77;;;8.18;;
68176;SDS011;56478;50.982;7.032;2022-11-20T04:33:54;13.20;;;8.57;;
68176;SDS011;56478;50.982;7.032;2022-11-20T04:36:24;18.88;;;9.10;;
68176;SDS011;56478;50.982;7.032;2022-11-20T04:38:55;13.13;;;8.40;;
68176;SDS011;56478;50.982;7.032;2022-11-20T04:41:22;12.35;;;8.32;;
68176;SDS011;56478;50.982;7.032;2022-11-20T04:43:50;13.63;;;8.55;;
68176;SDS011;56478;50.982;7.032;2022-11-20T04:46:24;11.88;;;8.73;;
68176;SDS011;56478;50.982;7.032;2022-11-20T04:48:50;14.27;;;8.95;;
68176;SDS011;56478;50.982;7.032;2022-11-20T04:51:16;15.48;;;8.85;;
68176;SDS011;56478;50.982;7.032;2022-11-20T04:53:42;12.98;;;8.48;;
68176;SDS011;56478;50.982;7.032;2022-11-20T04:56:08;12.85;;;8.27;;
68176;SDS011;56478;50.982;7.032;2022-11-20T04:58:35;12.18;;;8.80;;
68176;SDS011;56478;50.982;7.032;2022-11-20T05:01:02;12.15;;;8.35;;
68176;SDS011;56478;50.982;7.032;2022-11-20T05:03:28;14.30;;;9.48;;
68176;SDS011;56478;50.982;7.032;2022-11-20T05:05:53;13.40;;;9.10;;
68176;SDS011;56478;50.982;7.032;2022-11-20T05:08:19;14.60;;;9.10;;
68176;SDS011;56478;50.982;7.032;2022-11-20T05:10:44;13.68;;;9.60;;
68176;SDS011;56478;50.982;7.032;2022-11-20T05:13:09;16.30;;;9.63;;
68176;SDS011;56478;50.982;7.032;2022-11-20T05:15:35;15.70;;;10.63;;
68176;SDS011;56478;50.982;7.032;2022-11-20T05:18:00;17.10;;;11.52;;
68176;SDS011;56478;50.982;7.032;2022-11-20T05:20:26;14.27;;;10.40;;
68176;SDS011;56478;50.982;7.032;2022-11-20T05:22:51;19.80;;;13.05;;
68176;SDS011;56478;50.982;7.032;2022-11-20T05:25:16;16.40;;;11.70;;
68176;SDS011;56478;50.982;7.032;2022-11-20T05:27:42;14.40;;;9.35;;
68176;SDS011;56478;50.982;7.032;2022-11-20T05:30:07;15.30;;;9.95;;
68176;SDS011;56478;50.982;7.032;2022-11-20T05:32:34;13.63;;;9.48;;
68176;SDS011;56478;50.982;7.032;2022-11-20T05:34:59;15.93;;;9.73;;
68176;SDS011;56478;50.982;7.032;2022-11-20T05:37:24;11.10;;;8.35;;
68176;SDS011;56478;50.982;7.032;2022-11-20T05:39:50;16.10;;;9.02;;
68176;SDS011;56478;50.982;7.032;2022-11-20T05:42:15;15.27;;;9.32;;
68176;SDS011;56478;50.982;7.032;2022-11-20T05:44:56;11.40;;;8.30;;
68176;SDS011;56478;50.982;7.032;2022-11-20T05:47:23;13.15;;;8.60;;
68176;SDS011;56478;50.982;7.032;2022-11-20T05:49:48;12.93;;;8.85;;
68176;SDS011;56478;50.982;7.032;2022-11-20T05:52:14;13.27;;;8.50;;
68176;SDS011;56478;50.982;7.032;2022-11-20T05:54:39;12.45;;;8.15;;
68176;SDS011;56478;50.982;7.032;2022-11-20T05:57:05;13.52;;;8.02;;
68176;SDS011;56478;50.982;7.032;2022-11-20T05:59:30;11.82;;;8.80;;
68176;SDS011;56478;50.982;7.032;2022-11-20T06:01:56;13.65;;;8.50;;
68176;SDS011;56478;50.982;7.032;2022-11-20T06:04:21;14.73;;;9.25;;
68176;SDS011;56478;50.982;7.032;2022-11-20T06:06:47;13.25;;;8.57;;
68176;SDS011;56478;50.982;7.032;2022-11-20T06:09:12;13.20;;;9.23;;
68176;SDS011;56478;50.982;7.032;2022-11-20T06:11:37;16.77;;;9.30;;
68176;SDS011;56478;50.982;7.032;2022-11-20T06:14:03;13.38;;;9.07;;
68176;SDS011;56478;50.982;7.032;2022-11-20T06:16:29;14.90;;;9.32;;
68176;SDS011;56478;50.982;7.032;2022-11-20T06:18:54;13.10;;;9.43;;
68176;SDS011;56478;50.982;7.032;2022-11-20T06:21:20;13.02;;;8.82;;
68176;SDS011;56478;50.982;7.032;2022-11-20T06:23:47;14.48;;;9.20;;
68176;SDS011;56478;50.982;7.032;2022-11-20T06:26:17;15.57;;;9.65;;
68176;SDS011;56478;50.982;7.032;2022-11-20T06:28:44;15.57;;;8.65;;
68176;SDS011;56478;50.982;7.032;2022-11-20T06:31:11;15.15;;;8.85;;
68176;SDS011;56478;50.982;7.032;2022-11-20T06:33:38;14.05;;;8.18;;
68176;SDS011;56478;50.982;7.032;2022-11-20T06:36:04;15.45;;;8.80;;
68176;SDS011;56478;50.982;7.032;2022-11-20T06:38:30;13.05;;;8.82;;
68176;SDS011;56478;50.982;7.032;2022-11-20T06:40:55;14.35;;;9.18;;
68176;SDS011;56478;50.982;7.032;2022-11-20T06:43:21;14.52;;;9.30;;
68176;SDS011;56478;50.982;7.032;2022-11-20T06:45:54;16.00;;;9.77;;
68176;SDS011;56478;50.982;7.032;2022-11-20T06:48:21;14.68;;;9.70;;
68176;SDS011;56478;50.982;7.032;2022-11-20T06:50:47;13.93;;;9.20;;
68176;SDS011;56478;50.982;7.032;2022-11-20T06:53:13;13.77;;;9.52;;
68176;SDS011;56478;50.982;7.032;2022-11-20T06:55:41;15.40;;;9.32;;
68176;SDS011;56478;50.982;7.032;2022-11-20T06:58:07;17.23;;;9.77;;
68176;SDS011;56478;50.982;7.032;2022-11-20T07:00:33;15.18;;;10.18;;
68176;SDS011;56478;50.982;7.032;2022-11-20T07:03:02;17.90;;;10.07;;
68176;SDS011;56478;50.982;7.032;2022-11-20T07:05:28;14.52;;;9.15;;
68176;SDS011;56478;50.982;7.032;2022-11-20T07:07:55;14.70;;;9.65;;
68176;SDS011;56478;50.982;7.032;2022-11-20T07:10:21;15.32;;;10.13;;
68176;SDS011;56478;50.982;7.032;2022-11-20T07:12:50;15.07;;;10.10;;
68176;SDS011;56478;50.982;7.032;2022-11-20T07:15:17;15.88;;;10.40;;
68176;SDS011;56478;50.982;7.032;2022-11-20T07:17:43;14.88;;;9.75;;
68176;SDS011;56478;50.982;7.032;2022-11-20T07:20:08;16.42;;;10.07;;
68176;SDS011;56478;50.982;7.032;2022-11-20T07:22:34;18.42;;;10.50;;
68176;SDS011;56478;50.982;7.032;2022-11-20T07:25:00;17.40;;;10.73;;
68176;SDS011;56478;50.982;7.032;2022-11-20T07:27:26;19.10;;;10.88;;
68176;SDS011;56478;50.982;7.032;2022-11-20T07:29:52;16.88;;;10.48;;
68176;SDS011;56478;50.982;7.032;2022-11-20T07:32:17;16.83;;;10.23;;
68176;SDS011;56478;50.982;7.032;2022-11-20T07:34:43;17.25;;;10.25;;
68176;SDS011;56478;50.982;7.032;2022-11-20T07:37:08;16.98;;;11.48;;
68176;SDS011;56478;50.982;7.032;2022-11-20T07:39:34;16.65;;;10.55;;
68176;SDS011;56478;50.982;7.032;2022-11-20T07:41:59;16.77;;;9.35;;
68176;SDS011;56478;50.982;7.032;2022-11-20T07:44:25;14.35;;;9.95;;
68176;SDS011;56478;50.982;7.032;2022-11-20T07:46:50;17.13;;;9.70;;
68176;SDS011;56478;50.982;7.032;2022-11-20T07:49:16;16.98;;;10.85;;
68176;SDS011;56478;50.982;7.032;2022-11-20T07:51:41;14.85;;;9.77;;
68176;SDS011;56478;50.982;7.032;2022-11-20T07:54:07;16.98;;;10.27;;
68176;SDS011;56478;50.982;7.032;2022-11-20T07:56:32;16.30;;;10.52;;
68176;SDS011;56478;50.982;7.032;2022-11-20T07:58:59;18.42;;;9.75;;
68176;SDS011;56478;50.982;7.032;2022-11-20T08:01:24;19.17;;;11.25;;
68176;SDS011;56478;50.982;7.032;2022-11-20T08:03:50;17.77;;;11.35;;
68176;SDS011;56478;50.982;7.032;2022-11-20T08:06:15;15.35;;;10.30;;
68176;SDS011;56478;50.982;7.032;2022-11-20T08:08:41;15.00;;;9.63;;
68176;SDS011;56478;50.982;7.032;2022-11-20T08:11:06;15.20;;;9.85;;
68176;SDS011;56478;50.982;7.032;2022-11-20T08:13:50;14.32;;;9.25;;
68176;SDS011;56478;50.982;7.032;2022-11-20T08:16:34;14.60;;;9.88;;
68176;SDS011;56478;50.982;7.032;2022-11-20T08:18:59;14.63;;;9.45;;
68176;SDS011;56478;50.982;7.032;2022-11-20T08:21:25;16.15;;;9.80;;
68176;SDS011;56478;50.982;7.032;2022-11-20T08:23:51;13.27;;;9.27;;
68176;SDS011;56478;50.982;7.032;2022-11-20T08:26:16;16.38;;;10.48;;
68176;SDS011;56478;50.982;7.032;2022-11-20T08:28:41;15.15;;;9.68;;
68176;SDS011;56478;50.982;7.032;2022-11-20T08:31:07;15.95;;;10.45;;
68176;SDS011;56478;50.982;7.032;2022-11-20T08:33:34;14.95;;;9.73;;
68176;SDS011;56478;50.982;7.032;2022-11-20T08:36:00;14.85;;;9.77;;
68176;SDS011;56478;50.982;7.032;2022-11-20T08:38:29;14.30;;;9.40;;
68176;SDS011;56478;50.982;7.032;2022-11-20T08:41:02;16.05;;;10.27;;
68176;SDS011;56478;50.982;7.032;2022-11-20T08:43:47;14.30;;;9.75;;
68176;SDS011;56478;50.982;7.032;2022-11-20T08:46:12;17.63;;;9.85;;
68176;SDS011;56478;50.982;7.032;2022-11-20T08:48:38;13.98;;;9.82;;
68176;SDS011;56478;50.982;7.032;2022-11-20T08:51:03;14.45;;;9.20;;
68176;SDS011;56478;50.982;7.032;2022-11-20T08:53:29;13.75;;;9.65;;
68176;SDS011;56478;50.982;7.032;2022-11-20T08:55:56;17.30;;;10.23;;
68176;SDS011;56478;50.982;7.032;2022-11-20T08:58:22;15.85;;;9.88;;
68176;SDS011;56478;50.982;7.032;2022-11-20T09:00:48;17.10;;;11.05;;
68176;SDS011;56478;50.982;7.032;2022-11-20T09:03:13;17.10;;;10.48;;
68176;SDS011;56478;50.982;7.032;2022-11-20T09:05:39;17.35;;;10.77;;
68176;SDS011;56478;50.982;7.032;2022-11-20T09:08:04;17.60;;;10.13;;
68176;SDS011;56478;50.982;7.032;2022-11-20T09:10:30;17.50;;;9.93;;
68176;SDS011;56478;50.982;7.032;2022-11-20T09:12:55;17.02;;;10.75;;
68176;SDS011;56478;50.982;7.032;2022-11-20T09:15:21;14.52;;;10.38;;
68176;SDS011;56478;50.982;7.032;2022-11-20T09:17:51;14.98;;;10.00;;
68176;SDS011;56478;50.982;7.032;2022-11-20T09:20:20;18.35;;;10.85;;
68176;SDS011;56478;50.982;7.032;2022-11-20T09:22:45;18.40;;;10.50;;
68176;SDS011;56478;50.982;7.032;2022-11-20T09:25:11;16.05;;;10.18;;
68176;SDS011;56478;50.982;7.032;2022-11-20T09:27:37;15.18;;;9.85;;
68176;SDS011;56478;50.982;7.032;2022-11-20T09:30:03;14.68;;;9.98;;
68176;SDS011;56478;50.982;7.032;2022-11-20T09:32:29;16.13;;;9.80;;
68176;SDS011;56478;50.982;7.032;2022-11-20T09:34:54;15.77;;;10.25;;
68176;SDS011;56478;50.982;7.032;2022-11-20T09:37:20;15.40;;;9.25;;
68176;SDS011;56478;50.982;7.032;2022-11-20T09:39:45;13.77;;;9.65;;
68176;SDS011;56478;50.982;7.032;2022-11-20T09:45:00;14.57;;;9.57;;
68176;SDS011;56478;50.982;7.032;2022-11-20T09:47:42;15.57;;;9.70;;
68176;SDS011;56478;50.982;7.032;2022-11-20T09:50:35;13.90;;;9.43;;
68176;SDS011;56478;50.982;7.032;2022-11-20T09:55:44;14.85;;;9.35;;
68176;SDS011;56478;50.982;7.032;2022-11-20T10:01:18;16.13;;;9.73;;
68176;SDS011;56478;50.982;7.032;2022-11-20T10:06:30;15.18;;;9.30;;
68176;SDS011;56478;50.982;7.032;2022-11-20T10:17:02;14.38;;;9.40;;
68176;SDS011;56478;50.982;7.032;2022-11-20T10:19:44;15.70;;;9.80;;
68176;SDS011;56478;50.982;7.032;2022-11-20T10:25:04;14.38;;;8.98;;
68176;SDS011;56478;50.982;7.032;2022-11-20T10:30:22;15.90;;;9.30;;
68176;SDS011;56478;50.982;7.032;2022-11-20T10:33:23;16.98;;;9.45;;
68176;SDS011;56478;50.982;7.032;2022-11-20T10:35:52;16.48;;;10.05;;
68176;SDS011;56478;50.982;7.032;2022-11-20T10:38:34;16.17;;;10.13;;
68176;SDS011;56478;50.982;7.032;2022-11-20T10:41:04;17.90;;;9.70;;
68176;SDS011;56478;50.982;7.032;2022-11-20T10:47:14;13.68;;;9.65;;
68176;SDS011;56478;50.982;7.032;2022-11-20T10:49:40;17.65;;;10.15;;
68176;SDS011;56478;50.982;7.032;2022-11-20T11:00:23;18.55;;;9.85;;
68176;SDS011;56478;50.982;7.032;2022-11-20T11:02:49;19.15;;;10.85;;
68176;SDS011;56478;50.982;7.032;2022-11-20T11:05:24;16.67;;;10.45;;
68176;SDS011;56478;50.982;7.032;2022-11-20T11:08:02;15.82;;;8.27;;
68176;SDS011;56478;50.982;7.032;2022-11-20T11:10:39;16.65;;;9.80;;
68176;SDS011;56478;50.982;7.032;2022-11-20T11:13:24;18.73;;;11.10;;
68176;SDS011;56478;50.982;7.032;2022-11-20T11:15:51;16.67;;;10.73;;
68176;SDS011;56478;50.982;7.032;2022-11-20T11:18:27;17.40;;;11.40;;
68176;SDS011;56478;50.982;7.032;2022-11-20T11:20:55;18.33;;;10.88;;
68176;SDS011;56478;50.982;7.032;2022-11-20T11:23:32;17.73;;;10.35;;
68176;SDS011;56478;50.982;7.032;2022-11-20T11:26:01;15.70;;;10.63;;
68176;SDS011;56478;50.982;7.032;2022-11-20T11:28:28;19.77;;;10.73;;
68176;SDS011;56478;50.982;7.032;2022-11-20T11:30:54;15.65;;;9.48;;
68176;SDS011;56478;50.982;7.032;2022-11-20T11:33:24;18.40;;;11.00;;
68176;SDS011;56478;50.982;7.032;2022-11-20T11:35:56;20.10;;;10.70;;
68176;SDS011;56478;50.982;7.032;2022-11-20T11:41:05;19.42;;;11.57;;
68176;SDS011;56478;50.982;7.032;2022-11-20T11:43:35;15.30;;;9.65;;
68176;SDS011;56478;50.982;7.032;2022-11-20T12:00:00;14.35;;;9.15;;
68176;SDS011;56478;50.982;7.032;2022-11-20T12:16:08;15.57;;;9.50;;
68176;SDS011;56478;50.982;7.032;2022-11-20T12:18:38;15.98;;;9.48;;
68176;SDS011;56478;50.982;7.032;2022-11-20T12:21:12;18.13;;;9.85;;
68176;SDS011;56478;50.982;7.032;2022-11-20T12:37:28;16.35;;;10.25;;
68176;SDS011;56478;50.982;7.032;2022-11-20T12:39:56;17.33;;;9.73;;
68176;SDS011;56478;50.982;7.032;2022-11-20T12:51:01;16.05;;;9.32;;
68176;SDS011;56478;50.982;7.032;2022-11-20T13:01:52;16.98;;;10.02;;
68176;SDS011;56478;50.982;7.032;2022-11-20T13:07:10;19.60;;;10.35;;
68176;SDS011;56478;50.982;7.032;2022-11-20T13:09:40;17.95;;;9.93;;
68176;SDS011;56478;50.982;7.032;2022-11-20T13:15:08;15.05;;;9.50;;
68176;SDS011;56478;50.982;7.032;2022-11-20T13:17:52;17.00;;;9.73;;
68176;SDS011;56478;50.982;7.032;2022-11-20T13:20:22;12.77;;;7.30;;
68176;SDS011;56478;50.982;7.032;2022-11-20T13:22:49;14.15;;;8.70;;
68176;SDS011;56478;50.982;7.032;2022-11-20T13:30:24;16.75;;;9.73;;
68176;SDS011;56478;50.982;7.032;2022-11-20T13:32:54;16.83;;;9.05;;
68176;SDS011;56478;50.982;7.032;2022-11-20T13:40:34;16.90;;;9.02;;
68176;SDS011;56478;50.982;7.032;2022-11-20T13:43:16;14.40;;;8.65;;
68176;SDS011;56478;50.982;7.032;2022-11-20T13:46:05;12.75;;;7.65;;
68176;SDS011;56478;50.982;7.032;2022-11-20T13:48:42;15.63;;;9.32;;
68176;SDS011;56478;50.982;7.032;2022-11-20T14:02:10;16.05;;;9.35;;
68176;SDS011;56478;50.982;7.032;2022-11-20T14:04:42;16.27;;;9.23;;
68176;SDS011;56478;50.982;7.032;2022-11-20T14:07:10;16.92;;;9.43;;
68176;SDS011;56478;50.982;7.032;2022-11-20T14:09:36;15.38;;;9.52;;
68176;SDS011;56478;50.982;7.032;2022-11-20T14:12:02;16.73;;;9.60;;
68176;SDS011;56478;50.982;7.032;2022-11-20T14:14:30;15.25;;;9.52;;
68176;SDS011;56478;50.982;7.032;2022-11-20T14:17:07;16.30;;;9.23;;
68176;SDS011;56478;50.982;7.032;2022-11-20T14:19:53;13.02;;;8.40;;
68176;SDS011;56478;50.982;7.032;2022-11-20T14:22:23;15.93;;;8.93;;
68176;SDS011;56478;50.982;7.032;2022-11-20T14:27:38;14.70;;;8.48;;
68176;SDS011;56478;50.982;7.032;2022-11-20T14:30:06;16.95;;;9.27;;
68176;SDS011;56478;50.982;7.032;2022-11-20T14:32:38;17.58;;;8.52;;
68176;SDS011;56478;50.982;7.032;2022-11-20T14:35:06;14.02;;;8.35;;
68176;SDS011;56478;50.982;7.032;2022-11-20T14:37:36;15.30;;;9.25;;
68176;SDS011;56478;50.982;7.032;2022-11-20T14:42:53;14.82;;;8.50;;
68176;SDS011;56478;50.982;7.032;2022-11-20T14:45:18;14.00;;;8.32;;
68176;SDS011;56478;50.982;7.032;2022-11-20T14:47:44;13.07;;;7.72;;
68176;SDS011;56478;50.982;7.032;2022-11-20T14:50:32;14.40;;;8.80;;
68176;SDS011;56478;50.982;7.032;2022-11-20T14:52:57;14.27;;;8.13;;
68176;SDS011;56478;50.982;7.032;2022-11-20T14:55:24;12.90;;;8.00;;
68176;SDS011;56478;50.982;7.032;2022-11-20T14:57:59;17.40;;;9.23;;
68176;SDS011;56478;50.982;7.032;2022-11-20T15:00:27;13.63;;;8.40;;
68176;SDS011;56478;50.982;7.032;2022-11-20T15:02:54;14.30;;;8.52;;
68176;SDS011;56478;50.982;7.032;2022-11-20T15:05:21;14.75;;;8.15;;
68176;SDS011;56478;50.982;7.032;2022-11-20T15:08:07;18.13;;;8.77;;
68176;SDS011;56478;50.982;7.032;2022-11-20T15:10:34;14.77;;;9.20;;
68176;SDS011;56478;50.982;7.032;2022-11-20T15:13:01;15.93;;;9.07;;
68176;SDS011;56478;50.982;7.032;2022-11-20T15:15:34;14.15;;;8.85;;
68176;SDS011;56478;50.982;7.032;2022-11-20T15:18:04;16.15;;;9.85;;
68176;SDS011;56478;50.982;7.032;2022-11-20T15:20:31;16.02;;;9.45;;
68176;SDS011;56478;50.982;7.032;2022-11-20T15:22:58;12.57;;;8.57;;
68176;SDS011;56478;50.982;7.032;2022-11-20T15:25:23;14.02;;;9.35;;
68176;SDS011;56478;50.982;7.032;2022-11-20T15:27:51;15.93;;;9.68;;
68176;SDS011;56478;50.982;7.032;2022-11-20T15:30:21;16.08;;;9.70;;
68176;SDS011;56478;50.982;7.032;2022-11-20T15:32:47;14.95;;;9.50;;
68176;SDS011;56478;50.982;7.032;2022-11-20T15:35:13;19.67;;;10.65;;
68176;SDS011;56478;50.982;7.032;2022-11-20T15:37:40;17.52;;;10.45;;
68176;SDS011;56478;50.982;7.032;2022-11-20T15:40:06;15.57;;;10.32;;
68176;SDS011;56478;50.982;7.032;2022-11-20T15:42:32;16.98;;;9.55;;
68176;SDS011;56478;50.982;7.032;2022-11-20T15:44:59;15.15;;;9.50;;
68176;SDS011;56478;50.982;7.032;2022-11-20T15:47:25;18.85;;;9.80;;
68176;SDS011;56478;50.982;7.032;2022-11-20T15:49:54;14.38;;;9.57;;
68176;SDS011;56478;50.982;7.032;2022-11-20T15:52:19;18.40;;;10.07;;
68176;SDS011;56478;50.982;7.032;2022-11-20T15:54:45;18.23;;;10.85;;
68176;SDS011;56478;50.982;7.032;2022-11-20T15:57:10;15.75;;;9.25;;
68176;SDS011;56478;50.982;7.032;2022-11-20T15:59:37;17.00;;;9.50;;
68176;SDS011;56478;50.982;7.032;2022-11-20T16:02:12;19.38;;;9.57;;
68176;SDS011;56478;50.982;7.032;2022-11-20T16:04:39;20.40;;;10.07;;
68176;SDS011;56478;50.982;7.032;2022-11-20T16:07:04;19.02;;;10.57;;
68176;SDS011;56478;50.982;7.032;2022-11-20T16:09:30;15.55;;;9.05;;
68176;SDS011;56478;50.982;7.032;2022-11-20T16:11:56;18.90;;;9.80;;
68176;SDS011;56478;50.982;7.032;2022-11-20T16:14:24;17.15;;;9.45;;
68176;SDS011;56478;50.982;7.032;2022-11-20T16:17:07;16.15;;;8.90;;
68176;SDS011;56478;50.982;7.032;2022-11-20T16:19:33;15.35;;;9.52;;
68176;SDS011;56478;50.982;7.032;2022-11-20T16:21:58;16.27;;;9.25;;
68176;SDS011;56478;50.982;7.032;2022-11-20T16:24:26;13.63;;;8.50;;
68176;SDS011;56478;50.982;7.032;2022-11-20T16:26:52;14.50;;;8.55;;
68176;SDS011;56478;50.982;7.032;2022-11-20T16:29:18;13.30;;;8.30;;
68176;SDS011;56478;50.982;7.032;2022-11-20T16:31:44;16.30;;;8.60;;
68176;SDS011;56478;50.982;7.032;2022-11-20T16:34:09;16.13;;;8.50;;
68176;SDS011;56478;50.982;7.032;2022-11-20T16:36:35;15.77;;;9.40;;
68176;SDS011;56478;50.982;7.032;2022-11-20T16:39:01;15.25;;;8.68;;
68176;SDS011;56478;50.982;7.032;2022-11-20T16:41:30;17.10;;;8.73;;
68176;SDS011;56478;50.982;7.032;2022-11-20T16:43:58;12.23;;;7.90;;
68176;SDS011;56478;50.982;7.032;2022-11-20T16:46:26;12.13;;;7.40;;
68176;SDS011;56478;50.982;7.032;2022-11-20T16:48:57;13.23;;;7.97;;
68176;SDS011;56478;50.982;7.032;2022-11-20T16:51:27;12.15;;;7.85;;
68176;SDS011;56478;50.982;7.032;2022-11-20T16:53:54;13.13;;;7.28;;